FLIGHT INFORMATION
Sky Gates Airlines

SAY306

At Arrival Gate

LIRF
 UUEE
DATE: 2020-03-14
GATE:  -
GATE DEPARTURE: 18:57
TAKEOFF: 19:08
DATE: 2020-03-14
GATE:  -
LANDING: 21:54
GATE ARRIVAL: 22:02
FLIGHT DATA
Crew: ROBERT S. RANDAZZO
Speed: 502 kts Altitude: 34000 ft
Stage Length: 1295 nm
Route: LIRF TIBER INTUD GOTMO IBENI IPKIS KOPRY SUNOR DEMOP PODAN ODRAP USTIL AMIRI PNK OGARA TAZIP DELON NASKA REKTA DEDOK SODKO ABKOM PASUD MOSON KOMOG RUBAG GUBON FK UUEE
Block Time: 3.1 Flight Time: 2.8
Fuel Used: 74216 LB
TRACK DATA
50000 FT1000 KTAltitudeSpeed
AIRCRAFT INFORMATION
Aircraft Type: B744F
Registration: VP-BCI
SELCAL:  MSN/LN: 32571 / 1271
Operator: SKY GATES AIRLINES
Flights: 4 Block Time: 42.6 Flight Time: 41.7
Fuel Used: 190828 LB
  • DEPARTURE INFORMATION
    Date: 2020-03-14
    Airport: LIRF
    Gate:  -
    Gate Departure: 18:57
    Takeoff: 19:08
    ARRIVAL INFORMATION
    Date: 2020-03-14
    Airport: UUEE
    Gate:  -
    Landing: 21:54
    Gate Arrival: 22:02
  • FLIGHT DATA
    Crew: ROBERT S. RANDAZZO
    Speed: 502 kts Altitude: 34000 ft
    Stage Length: 699 nm
    Route: LIRF TIBER INTUD GOTMO IBENI IPKIS KOPRY SUNOR DEMOP PODAN ODRAP USTIL AMIRI PNK OGARA TAZIP DELON NASKA REKTA DEDOK SODKO ABKOM PASUD MOSON KOMOG RUBAG GUBON FK UUEE
    Block Time: 3.1 Flight Time: 2.8
    Fuel Used: 74216 LB
  • AIRCRAFT INFORMATION
    Aircraft Type: B744F
    Registration: VP-BCI
    SELCAL:  MSN/LN: 32571 / 1271
    Operator: Sky Gates Airlines
    Flights: 4 Block Time: 42.6 Flight Time: 41.7
    Fuel Used: 190828 LB

DATALINK LOG | Newest first | Current as of: 2020-07-14 00:27:49
LABEL ID SEQUENCE CONTENT Dn/Up
QD021022:02 69.1▼ Dn
QC553021:54▼ Dn
GA3550ADVANCED GATE ASSIGNMENTS NOT YET AVAILABLE AT THIS AIRPORT▲ Up
GR2907UUEE 21:53 MAAS YP/UM WCHR/S/C HI-VAL NO DIPL/VIP NO▼ Dn
5R2950MOSON 21:20z FL340 KOMOG 21:28z RUBAG M0.84 36.0 -27 231/32 UUEE 21:53z▼ Dn
5R2939MOSON 21:20z FL340 KOMOG 21:28z RUBAG M0.84 36.0 -27 231/32 UUEE 21:53z▼ Dn
2U1859UUEE 070000Z 17002MPS 130V230 9999 BKN031 06/04 Q1013 R24L/290048 R24R/290045 NOSIG▲ Up
2S1859UUEE▼ Dn
QB082319:08▼ Dn
QA584718:57 143.3▼ Dn
5U5110UUEE 070439Z 17002MPS 0300 -DZ OVC001 06/04 Q1013▲ Up
5S5110UUEE▼ Dn
2U4658UUEE 070000Z 17002MPS 130V230 9999 BKN031 06/04 Q1013 R24L/290048 R24R/290045 NOSIG▲ Up
2U4658LIRF 062350Z 17002KT 9999 FEW030 11/07 Q1004 NOSIG▲ Up
2S4658LIRF UUEE▼ Dn
A35013CLEARED TO UUEE VIA TIB8B TIBER Q549 INTUD GOTMO IBENI IPKIS KOPRY SUNOR DEMOP PODAN ODRAP USTIL AMIRI P26 ABKOM T52 MOSON L158 FK FK3G. SQUAWK 2726.▲ Up
B34429LIRF UUEE SAY306 VP-BCI F ▼ Dn
Q04801[LINK ACK]▲ Up
Q04246[LINK TEST]▼ Dn


AIRCRAFT HISTORY
FLIGHT DATE FLIGHT NUMBER ORIGIN DESTINATION ROUTE BLOCK TIME FLIGHT TIME FUEL USED (LB) PILOT
2020-03-14SAY306LIRF UUEE LIRF TIBER INTUD GOTMO IBENI IPKIS KOPRY SUNOR DEMOP PODAN ODRAP USTIL AMIRI PNK OGARA TAZIP DELON NASKA REKTA DEDOK SODKO ABKOM PASUD MOSON KOMOG RUBAG GUBON FK UUEE3.12.874216Robert S. Randazzo
2019-03-18SAY317ESSA LIRF ESSA NOSLI TONSA ABAMA MOKNI NEMBA DEKIK ETPIG ELVIX BIKRU RAKIT MAREM PEMEL RUDAP BARIX BAMTA DEGIN DOSEL TULSI BERAS MIMVI LIZUM LIKDA VESAL GAVRA RITEB LIRF3.5360302Aaron Buchanan
2019-03-13SAY312EFHK ESSA EFHK ADIVO PEPIG POGOK RUNGA XILAN ESSA1.20.818577Aaron Buchanan
2019-03-03SAY302UUDD EFHK UUDD LO GOTMA ARSEP UM AR BELAG OLIDI GAPSA ROMEL KUDIM GUBIT PIKAM ATBUR ORTOK NOTAR SUMIM ULKOX BIRSI LEMLA GEPTA INTOR EFHK1.81.637734Aaron Buchanan